Time;durP1;ratioP1;P1;durP2;ratioP2;P2;SDS_P1;SDS_P2;PMS_P1;PMS_P2;Temp;Humidity;BMP_temperature;BMP_pressure;BME280_temperature;BME280_humidity;BME280_pressure;Samples;Min_cycle;Max_cycle;Signal;HPM_P1;HPM_P2
2024/01/15 00:01:34;;;;;;;17.98;16.10;;;2.70;99.90;;;;;;5022631;28;20069;-81
2024/01/15 00:04:00;;;;;;;19.15;16.40;;;2.80;99.90;;;;;;5030962;28;20033;-84
2024/01/15 00:06:28;;;;;;;17.90;15.60;;;2.90;99.90;;;;;;5029860;28;20041;-81
2024/01/15 00:08:54;;;;;;;19.10;17.15;;;2.90;99.90;;;;;;5044849;28;20048;-83
2024/01/15 00:11:19;;;;;;;17.50;15.70;;;2.80;99.90;;;;;;5027065;28;20045;-81
2024/01/15 00:13:45;;;;;;;21.95;16.70;;;2.80;99.90;;;;;;5047066;28;20044;-82
2024/01/15 00:16:11;;;;;;;18.85;17.35;;;2.70;99.90;;;;;;5044768;28;20044;-82
2024/01/15 00:18:37;;;;;;;21.65;18.35;;;2.60;99.90;;;;;;5042366;28;20045;-83
2024/01/15 00:21:03;;;;;;;19.42;17.55;;;2.50;99.90;;;;;;5042798;28;20033;-83
2024/01/15 00:23:29;;;;;;;21.85;20.15;;;2.50;99.90;;;;;;5042025;28;20037;-83
2024/01/15 00:25:55;;;;;;;22.00;19.33;;;2.40;99.90;;;;;;5023874;28;20162;-82
2024/01/15 00:28:20;;;;;;;20.13;18.80;;;2.40;99.90;;;;;;5023501;28;20033;-83
2024/01/15 00:30:46;;;;;;;21.15;19.65;;;2.30;99.90;;;;;;5025308;28;20128;-84
2024/01/15 00:33:12;;;;;;;21.33;19.77;;;2.20;99.90;;;;;;5046858;28;20052;-83
2024/01/15 00:35:38;;;;;;;20.55;19.13;;;2.10;99.90;;;;;;5025911;28;20053;-82
2024/01/15 00:38:04;;;;;;;21.48;20.13;;;2.00;99.90;;;;;;5029107;28;20049;-82
2024/01/15 00:40:29;;;;;;;21.73;20.25;;;2.00;99.90;;;;;;5040451;28;20103;-83
2024/01/15 00:42:55;;;;;;;20.05;18.55;;;1.90;99.90;;;;;;5048197;28;20433;-83
2024/01/15 00:45:21;;;;;;;20.88;19.08;;;1.90;99.90;;;;;;5040768;28;20111;-82
2024/01/15 00:47:46;;;;;;;20.10;18.50;;;1.90;99.90;;;;;;5026385;28;20043;-82
2024/01/15 00:50:12;;;;;;;19.52;17.95;;;1.90;99.90;;;;;;5029483;28;20048;-83
2024/01/15 00:52:38;;;;;;;18.67;17.17;;;1.80;99.90;;;;;;5019964;28;20119;-83
2024/01/15 00:55:04;;;;;;;20.40;17.42;;;1.80;99.90;;;;;;5046237;28;20049;-83
2024/01/15 00:57:30;;;;;;;19.52;17.85;;;1.80;99.90;;;;;;5046782;28;20048;-83
2024/01/15 00:59:56;;;;;;;20.70;18.98;;;1.80;99.90;;;;;;5045560;28;20516;-83
2024/01/15 01:02:21;;;;;;;20.48;18.42;;;1.70;99.90;;;;;;5025598;28;20188;-83
2024/01/15 01:04:47;;;;;;;22.70;20.30;;;1.80;99.90;;;;;;5027694;28;20044;-84
2024/01/15 01:07:13;;;;;;;20.83;18.52;;;1.90;99.90;;;;;;5026319;28;20508;-83
2024/01/15 01:09:38;;;;;;;20.33;17.40;;;1.90;99.90;;;;;;5039506;28;20512;-82
2024/01/15 01:12:04;;;;;;;20.65;19.08;;;2.10;99.90;;;;;;5037576;28;20071;-82
2024/01/15 01:14:30;;;;;;;22.00;19.88;;;2.20;99.90;;;;;;5019668;28;20745;-87
2024/01/15 01:16:56;;;;;;;20.42;18.27;;;2.30;99.90;;;;;;5042885;28;20037;-82
2024/01/15 01:19:21;;;;;;;20.42;18.27;;;2.40;99.90;;;;;;5022072;28;20073;-83
2024/01/15 01:21:47;;;;;;;20.80;19.17;;;2.50;99.90;;;;;;5047331;28;20541;-84
2024/01/15 01:24:13;;;;;;;19.67;17.98;;;2.50;99.90;;;;;;5027697;28;20037;-83
2024/01/15 01:26:38;;;;;;;19.75;17.90;;;2.60;99.90;;;;;;5043749;28;20052;-82
2024/01/15 01:29:04;;;;;;;19.25;17.55;;;2.60;99.90;;;;;;5020012;28;20456;-82
2024/01/15 01:31:30;;;;;;;20.20;18.45;;;2.60;99.90;;;;;;5027650;28;20045;-83
2024/01/15 01:33:55;;;;;;;20.13;18.02;;;2.50;99.90;;;;;;5012285;28;20050;-83
2024/01/15 01:36:21;;;;;;;27.98;25.95;;;2.50;99.90;;;;;;5036380;28;20121;-83
2024/01/15 01:38:46;;;;;;;20.73;18.88;;;2.50;99.90;;;;;;5026813;28;20512;-83
2024/01/15 01:41:12;;;;;;;20.75;19.08;;;2.60;99.90;;;;;;5027984;28;20116;-84
2024/01/15 01:43:38;;;;;;;20.27;18.67;;;2.60;99.90;;;;;;5049210;28;20119;-84
2024/01/15 01:46:05;;;;;;;20.25;18.63;;;2.60;99.90;;;;;;5069520;28;20041;-84
2024/01/15 01:48:31;;;;;;;15.00;13.70;;;2.60;99.90;;;;;;5049214;28;20040;-83
2024/01/15 01:50:59;;;;;;;15.10;14.00;;;2.50;99.90;;;;;;5037090;28;20115;-82
2024/01/15 01:53:26;;;;;;;14.57;13.20;;;2.50;99.90;;;;;;5043544;28;20044;-82
2024/01/15 01:55:53;;;;;;;16.15;14.90;;;2.60;99.90;;;;;;5068887;28;20048;-83
2024/01/15 01:58:19;;;;;;;14.50;13.20;;;2.60;99.90;;;;;;5051217;28;20377;-83
2024/01/15 02:00:46;;;;;;;14.52;13.52;;;2.60;99.90;;;;;;5033875;28;20048;-82
2024/01/15 02:03:12;;;;;;;18.08;16.63;;;2.60;99.90;;;;;;5052590;28;20405;-83
2024/01/15 02:05:40;;;;;;;19.40;17.75;;;2.60;99.90;;;;;;5067988;28;20568;-82
2024/01/15 02:08:06;;;;;;;18.92;17.50;;;2.50;99.90;;;;;;5032174;28;20071;-82
2024/01/15 02:10:32;;;;;;;19.38;17.77;;;2.50;99.90;;;;;;5048284;28;20072;-82
2024/01/15 02:12:58;;;;;;;21.17;19.45;;;2.40;99.90;;;;;;5031678;28;20036;-82
2024/01/15 02:15:24;;;;;;;19.48;18.00;;;2.30;99.90;;;;;;5035877;28;20044;-83
2024/01/15 02:18:07;;;;;;;22.85;20.75;;;2.20;99.90;;;;;;5030638;28;20103;-82
2024/01/15 02:20:33;;;;;;;21.50;19.50;;;2.20;99.90;;;;;;5034443;28;20048;-82
2024/01/15 02:23:15;;;;;;;22.02;19.88;;;2.10;99.90;;;;;;5035409;28;20294;-82
2024/01/15 02:25:47;;;;;;;25.70;21.33;;;2.10;99.90;;;;;;5050783;28;20362;-82
2024/01/15 02:28:15;;;;;;;22.67;20.45;;;2.10;99.90;;;;;;5032197;28;20043;-83
2024/01/15 02:30:43;;;;;;;22.20;19.92;;;2.20;99.90;;;;;;5051208;28;20382;-82
2024/01/15 02:33:09;;;;;;;22.45;20.13;;;2.20;99.90;;;;;;5034432;28;20063;-84
2024/01/15 02:35:36;;;;;;;22.67;20.65;;;2.20;99.90;;;;;;5049904;28;20119;-83
2024/01/15 02:38:02;;;;;;;23.45;20.48;;;2.20;99.90;;;;;;5034834;28;20121;-83
2024/01/15 02:40:29;;;;;;;22.30;20.38;;;2.20;99.90;;;;;;5033268;28;20076;-82
2024/01/15 02:42:54;;;;;;;27.80;21.27;;;2.30;99.90;;;;;;5036203;28;20066;-82
2024/01/15 02:45:21;;;;;;;21.50;18.85;;;2.30;99.90;;;;;;5035335;28;20044;-82
2024/01/15 02:47:46;;;;;;;20.63;18.70;;;2.30;99.90;;;;;;5050180;28;20064;-82
2024/01/15 02:50:12;;;;;;;20.60;17.80;;;2.30;99.90;;;;;;5051669;28;20044;-82
2024/01/15 02:52:38;;;;;;;21.33;19.10;;;2.20;99.90;;;;;;5070265;28;20054;-82
2024/01/15 02:55:04;;;;;;;20.58;16.02;;;2.20;99.90;;;;;;5034943;28;20131;-82
2024/01/15 02:57:29;;;;;;;17.05;15.35;;;2.30;99.90;;;;;;5033627;28;20416;-83
2024/01/15 02:59:55;;;;;;;17.55;14.85;;;2.30;99.90;;;;;;5049636;28;20053;-82
2024/01/15 03:02:21;;;;;;;16.17;14.77;;;2.40;99.90;;;;;;5068908;28;20041;-82
2024/01/15 03:04:46;;;;;;;18.15;14.45;;;2.50;99.90;;;;;;5049071;28;20044;-82
2024/01/15 03:07:12;;;;;;;15.95;14.30;;;2.60;99.90;;;;;;5051880;28;20160;-82
2024/01/15 03:09:38;;;;;;;17.27;14.20;;;2.60;99.90;;;;;;5050237;28;20065;-82
2024/01/15 03:12:04;;;;;;;15.07;13.50;;;2.60;99.90;;;;;;5050932;28;20503;-82
2024/01/15 03:14:30;;;;;;;17.05;14.18;;;2.60;99.90;;;;;;5068937;28;20545;-82
2024/01/15 03:16:55;;;;;;;16.98;14.20;;;2.50;99.90;;;;;;5045087;28;20036;-82
2024/01/15 03:19:21;;;;;;;15.15;13.60;;;2.50;99.90;;;;;;5048509;28;20110;-82
2024/01/15 03:21:47;;;;;;;15.85;14.13;;;2.50;99.90;;;;;;5034793;28;20048;-82
2024/01/15 03:24:12;;;;;;;14.88;13.57;;;2.50;99.90;;;;;;5069024;28;20040;-82
2024/01/15 03:26:38;;;;;;;16.65;14.57;;;2.50;99.90;;;;;;5033958;28;20079;-84
2024/01/15 03:29:03;;;;;;;18.70;16.80;;;2.50;99.90;;;;;;5030297;28;20033;-82
2024/01/15 03:31:29;;;;;;;16.77;14.52;;;2.40;99.90;;;;;;5045312;28;20041;-83
2024/01/15 03:33:55;;;;;;;17.35;15.63;;;2.40;99.90;;;;;;5050966;28;20047;-82
2024/01/15 03:36:21;;;;;;;20.25;18.05;;;2.40;99.90;;;;;;5050685;28;21204;-82
2024/01/15 03:38:46;;;;;;;19.77;17.73;;;2.40;99.90;;;;;;5024992;28;20096;-82
2024/01/15 03:41:12;;;;;;;20.63;17.67;;;2.50;99.90;;;;;;5031410;28;20091;-83
2024/01/15 03:43:38;;;;;;;18.00;16.65;;;2.50;99.90;;;;;;5029273;28;20474;-82
2024/01/15 03:46:04;;;;;;;55.25;51.35;;;2.60;99.90;;;;;;5039122;28;20045;-82
2024/01/15 03:48:30;;;;;;;17.02;14.10;;;2.60;99.90;;;;;;5043763;28;20049;-83
2024/01/15 03:50:56;;;;;;;22.40;14.40;;;2.60;99.90;;;;;;5038157;28;20054;-82
2024/01/15 03:53:21;;;;;;;16.52;14.77;;;2.60;99.90;;;;;;5023158;28;20045;-82
2024/01/15 03:55:47;;;;;;;17.35;15.60;;;2.60;99.90;;;;;;5023465;28;20039;-82
2024/01/15 03:58:14;;;;;;;19.08;16.75;;;2.60;99.90;;;;;;5042689;28;20045;-82
2024/01/15 04:00:40;;;;;;;19.48;17.52;;;2.60;99.90;;;;;;5044190;28;20037;-82
2024/01/15 04:03:06;;;;;;;20.65;17.08;;;2.60;99.90;;;;;;5047986;28;20090;-82
2024/01/15 04:05:32;;;;;;;17.33;15.85;;;2.60;99.90;;;;;;5047749;28;20498;-82
2024/01/15 04:07:58;;;;;;;16.05;14.50;;;2.60;99.90;;;;;;5029503;28;20818;-82
2024/01/15 04:10:23;;;;;;;15.57;13.98;;;2.80;99.90;;;;;;5041957;28;20044;-82
2024/01/15 04:12:49;;;;;;;54.67;50.10;;;2.80;99.90;;;;;;5038488;28;20048;-88
2024/01/15 04:15:18;;;;;;;72.47;67.05;;;2.90;99.90;;;;;;5040948;28;20448;-86
2024/01/15 04:17:44;;;;;;;18.08;16.83;;;2.80;99.90;;;;;;5028118;28;20432;-83
2024/01/15 04:20:10;;;;;;;22.98;21.58;;;2.60;99.90;;;;;;5022656;28;20041;-83
2024/01/15 04:22:36;;;;;;;19.83;18.58;;;2.30;99.90;;;;;;5041288;28;20426;-82
2024/01/15 04:25:02;;;;;;;20.73;19.40;;;2.20;99.90;;;;;;5026679;28;20041;-85
2024/01/15 04:27:28;;;;;;;23.42;21.83;;;2.00;99.90;;;;;;5034347;28;20048;-82
2024/01/15 04:29:53;;;;;;;22.40;21.00;;;2.00;99.90;;;;;;5037502;28;20036;-82
2024/01/15 04:32:19;;;;;;;19.90;18.35;;;1.90;99.90;;;;;;5045852;28;20508;-82
2024/01/15 04:34:45;;;;;;;32.90;30.95;;;1.90;99.90;;;;;;5037187;28;20048;-82
2024/01/15 04:37:11;;;;;;;23.23;20.98;;;1.90;99.90;;;;;;5043267;28;20106;-82
2024/01/15 04:39:37;;;;;;;18.30;16.85;;;1.90;99.90;;;;;;5023614;28;20068;-83
2024/01/15 04:42:03;;;;;;;19.33;17.95;;;1.90;99.90;;;;;;5039784;28;20037;-82
2024/01/15 04:44:29;;;;;;;18.15;17.00;;;1.90;99.90;;;;;;5023396;28;20039;-82
2024/01/15 04:46:54;;;;;;;17.65;16.45;;;1.90;99.90;;;;;;5020952;28;20033;-82
2024/01/15 04:49:20;;;;;;;17.92;16.50;;;1.90;99.90;;;;;;5024042;28;20033;-82
2024/01/15 04:51:46;;;;;;;17.23;16.13;;;1.80;99.90;;;;;;5023028;28;20049;-82
2024/01/15 04:54:12;;;;;;;16.52;15.50;;;1.70;99.90;;;;;;5042430;28;20543;-82
2024/01/15 04:56:37;;;;;;;17.90;16.65;;;1.60;99.90;;;;;;5025157;28;20049;-82
2024/01/15 04:59:03;;;;;;;17.27;16.23;;;1.60;99.90;;;;;;5017237;28;20045;-82
2024/01/15 05:01:32;;;;;;;16.73;15.73;;;1.60;99.90;;;;;;5044271;28;20053;-82
2024/01/15 05:03:58;;;;;;;17.50;16.20;;;1.60;99.90;;;;;;5038969;28;20041;-82
2024/01/15 05:06:24;;;;;;;16.55;15.55;;;1.50;99.90;;;;;;5034346;28;20048;-82
2024/01/15 05:08:50;;;;;;;17.90;16.52;;;1.50;99.90;;;;;;5042572;28;20036;-82
2024/01/15 05:11:15;;;;;;;17.70;16.30;;;1.50;99.90;;;;;;5028526;28;20045;-82
2024/01/15 05:13:41;;;;;;;20.80;19.08;;;1.50;99.90;;;;;;5030503;28;20045;-82
2024/01/15 05:16:07;;;;;;;19.20;17.58;;;1.60;99.90;;;;;;5046173;28;20512;-82
2024/01/15 05:18:32;;;;;;;20.35;18.52;;;1.70;99.90;;;;;;5036242;28;20482;-82
2024/01/15 05:20:58;;;;;;;19.83;17.88;;;1.80;99.90;;;;;;5049233;28;20477;-82
2024/01/15 05:23:24;;;;;;;18.88;17.38;;;1.80;99.90;;;;;;5028091;28;20095;-82
2024/01/15 05:25:50;;;;;;;19.35;17.58;;;1.80;99.90;;;;;;5048108;28;20047;-82
2024/01/15 05:28:15;;;;;;;18.88;17.38;;;1.80;99.90;;;;;;5045490;28;20037;-82
2024/01/15 05:30:41;;;;;;;19.00;17.17;;;1.80;99.90;;;;;;5031257;28;20405;-82
2024/01/15 05:33:07;;;;;;;18.45;16.95;;;1.80;99.90;;;;;;5031546;28;20048;-82
2024/01/15 05:35:33;;;;;;;18.77;17.20;;;1.70;99.90;;;;;;5043626;28;20041;-82
2024/01/15 05:37:59;;;;;;;18.02;16.23;;;1.70;99.90;;;;;;5032692;28;20140;-82
2024/01/15 05:40:24;;;;;;;18.83;16.75;;;1.60;99.90;;;;;;5035243;28;20135;-82
2024/01/15 05:42:50;;;;;;;19.05;17.30;;;1.60;99.90;;;;;;5050211;28;20040;-82
2024/01/15 05:45:16;;;;;;;18.73;17.00;;;1.60;99.90;;;;;;5037369;28;20815;-82
2024/01/15 05:47:41;;;;;;;18.55;16.63;;;1.50;99.90;;;;;;5032079;28;20470;-82
2024/01/15 05:50:08;;;;;;;18.88;17.23;;;1.50;99.90;;;;;;5035755;28;20040;-82
2024/01/15 05:52:34;;;;;;;19.08;17.33;;;1.50;99.90;;;;;;5036256;28;20048;-82
2024/01/15 05:54:59;;;;;;;19.30;17.77;;;1.40;99.90;;;;;;5052869;28;20037;-82
2024/01/15 05:57:25;;;;;;;18.52;16.70;;;1.40;99.90;;;;;;5034356;28;20049;-82
2024/01/15 05:59:51;;;;;;;18.63;17.00;;;1.40;99.90;;;;;;5050848;28;20047;-82
2024/01/15 06:02:16;;;;;;;22.02;19.88;;;1.40;99.90;;;;;;5053017;28;20040;-82
2024/01/15 06:04:42;;;;;;;20.58;18.88;;;1.50;99.90;;;;;;5053600;28;20044;-83
2024/01/15 06:07:08;;;;;;;21.92;19.63;;;1.60;99.90;;;;;;5052929;28;20040;-82
2024/01/15 06:09:33;;;;;;;20.30;18.52;;;1.50;99.90;;;;;;5034932;28;20043;-82
2024/01/15 06:11:59;;;;;;;19.60;18.20;;;1.50;99.90;;;;;;5035864;28;20033;-82
2024/01/15 06:14:24;;;;;;;20.45;18.67;;;1.50;99.90;;;;;;5051703;28;20467;-82
2024/01/15 06:16:52;;;;;;;22.35;20.20;;;1.50;99.90;;;;;;5034168;28;20046;-83
2024/01/15 06:19:17;;;;;;;22.83;21.15;;;1.50;99.90;;;;;;5052630;28;20055;-82
2024/01/15 06:21:43;;;;;;;21.33;19.67;;;1.50;99.90;;;;;;5027896;28;20044;-82
2024/01/15 06:24:10;;;;;;;23.67;21.00;;;1.50;99.90;;;;;;5045718;28;20045;-82
2024/01/15 06:26:36;;;;;;;25.90;20.15;;;1.50;99.90;;;;;;5031695;28;20132;-82
2024/01/15 06:29:05;;;;;;;23.15;20.92;;;1.50;99.90;;;;;;5071090;28;20058;-82
2024/01/15 06:31:34;;;;;;;24.20;21.70;;;1.40;99.90;;;;;;5070226;28;20090;-83
2024/01/15 06:34:00;;;;;;;23.33;20.80;;;1.50;99.90;;;;;;5053373;28;20036;-82
2024/01/15 06:36:25;;;;;;;22.70;20.40;;;1.40;99.90;;;;;;5052584;28;20123;-82
2024/01/15 06:38:51;;;;;;;24.35;22.15;;;1.50;99.90;;;;;;5038426;28;20508;-82
2024/01/15 06:41:17;;;;;;;25.23;22.52;;;1.50;99.90;;;;;;5044551;28;20550;-82
2024/01/15 06:43:42;;;;;;;24.27;22.05;;;1.50;99.90;;;;;;5020974;28;20076;-82
2024/01/15 06:46:08;;;;;;;73.95;69.00;;;1.60;99.90;;;;;;5049735;28;20029;-84
2024/01/15 06:48:34;;;;;;;22.52;20.33;;;1.70;99.90;;;;;;5049157;28;20048;-82
2024/01/15 06:51:00;;;;;;;21.42;19.20;;;1.70;99.90;;;;;;5045234;28;20041;-82
2024/01/15 06:53:26;;;;;;;20.60;18.75;;;1.70;99.90;;;;;;5040261;28;20498;-82
2024/01/15 06:55:51;;;;;;;21.00;18.95;;;1.60;99.90;;;;;;5027758;28;20045;-81
2024/01/15 06:58:17;;;;;;;24.65;22.52;;;1.60;99.90;;;;;;5050974;28;20119;-81
2024/01/15 07:00:42;;;;;;;21.02;19.13;;;1.70;99.90;;;;;;5030303;28;20037;-81
2024/01/15 07:03:08;;;;;;;20.90;18.95;;;1.60;99.90;;;;;;5049257;28;20037;-82
2024/01/15 07:05:34;;;;;;;21.63;17.40;;;1.70;99.90;;;;;;5047990;28;20449;-81
2024/01/15 07:07:59;;;;;;;20.00;17.85;;;1.60;99.90;;;;;;5026624;28;20544;-81
2024/01/15 07:10:26;;;;;;;18.10;16.58;;;1.60;99.90;;;;;;5044511;28;20049;-81
2024/01/15 07:12:51;;;;;;;17.83;16.20;;;1.50;99.90;;;;;;5030559;28;20041;-81
2024/01/15 07:15:17;;;;;;;18.23;16.63;;;1.50;99.90;;;;;;5049741;28;20115;-81
2024/01/15 07:17:43;;;;;;;17.77;16.23;;;1.50;99.90;;;;;;5042011;28;20098;-81
2024/01/15 07:20:09;;;;;;;17.98;16.35;;;1.60;99.90;;;;;;5031493;28;20152;-81
2024/01/15 07:22:38;;;;;;;17.75;16.10;;;1.60;99.90;;;;;;5045438;28;20068;-81
2024/01/15 07:25:04;;;;;;;19.10;16.88;;;1.60;99.90;;;;;;5032700;28;20028;-81
2024/01/15 07:27:31;;;;;;;18.45;16.45;;;1.70;99.90;;;;;;5045606;28;20132;-81
2024/01/15 07:29:57;;;;;;;21.35;16.80;;;1.70;99.90;;;;;;5047654;28;20047;-81
2024/01/15 07:32:23;;;;;;;20.60;18.73;;;1.70;99.90;;;;;;5047207;28;20133;-81
2024/01/15 07:34:49;;;;;;;17.77;15.95;;;1.70;99.90;;;;;;5042988;28;20484;-82
2024/01/15 07:37:15;;;;;;;19.20;17.42;;;1.80;99.90;;;;;;5027748;28;20113;-82
2024/01/15 07:39:41;;;;;;;19.25;17.40;;;1.80;99.90;;;;;;5060528;28;20058;-81
2024/01/15 07:42:07;;;;;;;28.38;25.80;;;1.80;99.90;;;;;;5046819;28;20124;-81
2024/01/15 07:44:33;;;;;;;21.33;19.63;;;1.90;99.90;;;;;;5051657;28;20086;-81
2024/01/15 07:46:58;;;;;;;24.42;22.10;;;1.90;99.90;;;;;;5051146;28;20120;-81
2024/01/15 07:49:24;;;;;;;40.17;37.17;;;1.80;99.90;;;;;;5050337;28;20119;-82
2024/01/15 07:51:50;;;;;;;22.50;20.95;;;1.80;99.90;;;;;;5068624;28;20041;-82
2024/01/15 07:54:16;;;;;;;21.98;19.92;;;1.90;99.90;;;;;;5068888;28;20094;-81
2024/01/15 07:56:59;;;;;;;22.73;20.63;;;1.90;99.90;;;;;;5034066;28;20110;-82
2024/01/15 07:59:24;;;;;;;23.48;21.90;;;1.80;99.90;;;;;;5048050;28;20127;-81
2024/01/15 08:01:51;;;;;;;21.73;20.08;;;1.80;99.90;;;;;;5050576;28;20043;-81
2024/01/15 08:04:17;;;;;;;21.55;19.95;;;1.80;99.90;;;;;;5050655;28;20040;-81
2024/01/15 08:06:42;;;;;;;21.23;19.63;;;1.80;99.90;;;;;;5051378;28;20106;-81
2024/01/15 08:09:08;;;;;;;20.85;19.13;;;1.70;99.90;;;;;;5045936;28;20059;-81
2024/01/15 08:11:34;;;;;;;19.95;18.42;;;1.70;99.90;;;;;;5033685;28;20048;-81
2024/01/15 08:14:00;;;;;;;20.65;19.15;;;1.60;99.90;;;;;;5068955;28;20163;-82
2024/01/15 08:16:27;;;;;;;18.45;17.17;;;1.60;99.90;;;;;;5025696;28;20139;-82
2024/01/15 08:18:56;;;;;;;19.17;17.60;;;1.60;99.90;;;;;;5059307;28;20040;-82
2024/01/15 08:21:22;;;;;;;18.45;17.13;;;1.60;99.90;;;;;;5028049;28;20583;-81
2024/01/15 08:23:47;;;;;;;19.90;18.48;;;1.60;99.90;;;;;;5028027;28;20052;-82
2024/01/15 08:26:13;;;;;;;19.08;17.88;;;1.60;99.90;;;;;;5048961;28;20032;-81
2024/01/15 08:28:39;;;;;;;18.05;16.70;;;1.70;99.90;;;;;;5048584;28;20040;-82
2024/01/15 08:31:04;;;;;;;18.13;16.83;;;1.70;99.90;;;;;;5050182;28;20044;-82
2024/01/15 08:33:30;;;;;;;17.45;16.13;;;1.80;99.90;;;;;;5033917;28;20401;-81
2024/01/15 08:35:55;;;;;;;18.20;16.83;;;2.00;99.90;;;;;;5034712;28;20047;-82
2024/01/15 08:38:21;;;;;;;19.38;17.88;;;2.10;99.90;;;;;;5032054;28;20143;-82
2024/01/15 08:40:48;;;;;;;18.98;17.77;;;2.20;99.90;;;;;;5069012;28;20044;-82
2024/01/15 08:43:13;;;;;;;17.95;16.60;;;2.40;99.90;;;;;;5048552;28;20032;-82
2024/01/15 08:45:39;;;;;;;16.65;15.38;;;2.50;99.90;;;;;;5030145;28;20039;-82
2024/01/15 08:48:04;;;;;;;16.77;15.40;;;2.50;99.90;;;;;;5048327;28;20037;-82
2024/01/15 08:50:31;;;;;;;25.50;23.98;;;2.60;99.90;;;;;;5033912;28;20436;-82
2024/01/15 08:52:57;;;;;;;18.95;17.42;;;2.50;99.90;;;;;;5030892;28;20098;-82
2024/01/15 08:55:23;;;;;;;17.55;16.17;;;2.60;99.90;;;;;;5032886;28;20090;-81
2024/01/15 08:57:49;;;;;;;17.55;16.25;;;2.80;99.90;;;;;;5067764;28;20040;-82
2024/01/15 09:00:15;;;;;;;16.63;15.43;;;2.80;99.90;;;;;;5029427;28;20133;-82
2024/01/15 09:02:41;;;;;;;16.33;15.13;;;2.70;99.90;;;;;;5032693;28;20113;-81
2024/01/15 09:05:07;;;;;;;17.98;16.58;;;2.50;99.90;;;;;;5059852;28;20040;-82
2024/01/15 09:07:33;;;;;;;19.23;17.80;;;2.40;99.90;;;;;;5033522;28;20036;-83
2024/01/15 09:09:59;;;;;;;16.45;15.30;;;2.30;99.90;;;;;;5033892;28;20121;-81
2024/01/15 09:12:25;;;;;;;16.58;15.27;;;2.20;99.90;;;;;;5033054;28;20059;-82
2024/01/15 09:14:51;;;;;;;17.08;15.73;;;2.20;99.90;;;;;;5050335;28;20107;-82
2024/01/15 09:17:17;;;;;;;19.35;17.88;;;2.20;99.90;;;;;;5048146;28;20079;-81
2024/01/15 09:19:44;;;;;;;17.55;16.15;;;2.20;99.90;;;;;;5033666;28;20067;-81
2024/01/15 09:22:09;;;;;;;20.42;18.50;;;2.20;99.90;;;;;;5046849;28;20032;-81
2024/01/15 09:24:35;;;;;;;23.10;21.20;;;2.20;99.90;;;;;;5027519;28;20067;-81
2024/01/15 09:27:02;;;;;;;19.45;17.70;;;2.20;99.90;;;;;;5033610;28;20409;-81
2024/01/15 09:29:27;;;;;;;18.52;16.83;;;2.30;99.90;;;;;;5027038;28;20036;-81
2024/01/15 09:31:53;;;;;;;18.40;17.00;;;2.30;99.90;;;;;;5067133;28;20119;-81
2024/01/15 09:34:19;;;;;;;20.52;19.02;;;2.20;99.90;;;;;;5045759;28;20048;-81
2024/01/15 09:36:44;;;;;;;19.73;18.27;;;2.20;99.90;;;;;;5033458;28;20070;-81
2024/01/15 09:39:11;;;;;;;21.02;19.38;;;2.20;99.90;;;;;;5068050;28;20059;-81
2024/01/15 09:41:40;;;;;;;20.88;19.17;;;2.10;99.90;;;;;;5033000;28;20048;-81
2024/01/15 09:44:07;;;;;;;20.40;18.80;;;2.10;99.90;;;;;;5049946;28;20126;-81
2024/01/15 09:46:34;;;;;;;20.58;19.00;;;2.00;99.90;;;;;;5050392;28;20033;-81
2024/01/15 09:49:01;;;;;;;20.63;19.15;;;2.00;99.90;;;;;;5066902;28;20072;-81
2024/01/15 09:51:30;;;;;;;21.90;20.08;;;2.10;99.90;;;;;;5047080;28;20056;-81
2024/01/15 09:53:57;;;;;;;21.33;19.52;;;2.10;99.90;;;;;;5032204;28;20047;-81
2024/01/15 09:56:23;;;;;;;22.30;20.42;;;2.10;99.90;;;;;;5033324;28;20137;-81
2024/01/15 09:58:52;;;;;;;22.15;20.20;;;2.10;99.90;;;;;;5031880;28;20044;-81
2024/01/15 10:01:20;;;;;;;22.27;20.48;;;2.10;99.90;;;;;;5049675;28;20036;-81
2024/01/15 10:03:46;;;;;;;22.27;20.58;;;2.20;99.90;;;;;;5050005;28;20079;-81
2024/01/15 10:06:19;;;;;;;21.63;19.42;;;2.30;99.90;;;;;;5047480;28;20040;-81
2024/01/15 10:08:50;;;;;;;20.52;18.45;;;2.50;99.90;;;;;;5036629;28;20041;-81
2024/01/15 10:11:16;;;;;;;22.15;20.60;;;2.60;99.90;;;;;;5063785;28;20111;-81
2024/01/15 10:13:44;;;;;;;20.55;18.63;;;2.70;99.90;;;;;;5036907;28;20135;-81
2024/01/15 10:16:11;;;;;;;19.20;17.15;;;2.70;99.90;;;;;;5036094;28;20090;-82
2024/01/15 10:18:36;;;;;;;20.02;18.02;;;2.80;99.90;;;;;;5036587;28;20123;-82
2024/01/15 10:21:03;;;;;;;20.00;18.60;;;2.90;99.90;;;;;;5035908;28;20115;-82
2024/01/15 10:23:31;;;;;;;20.65;19.17;;;3.10;99.90;;;;;;5032235;28;20036;-82
2024/01/15 10:25:57;;;;;;;21.65;19.98;;;3.20;99.90;;;;;;5053005;28;20384;-82
2024/01/15 10:28:26;;;;;;;17.83;16.58;;;3.20;99.90;;;;;;5071802;28;20181;-82
2024/01/15 10:30:56;;;;;;;23.63;21.42;;;3.20;99.90;;;;;;5071706;28;20384;-82
2024/01/15 10:33:25;;;;;;;20.10;16.73;;;3.10;99.90;;;;;;5035740;28;20048;-82
2024/01/15 10:35:54;;;;;;;20.15;18.48;;;3.10;99.90;;;;;;5036566;28;20072;-82
2024/01/15 10:38:22;;;;;;;34.97;33.15;;;3.20;99.90;;;;;;5048543;28;20543;-84
2024/01/15 10:40:51;;;;;;;23.45;21.60;;;3.20;99.90;;;;;;5071217;28;20062;-82
2024/01/15 10:43:17;;;;;;;20.15;18.70;;;3.20;99.90;;;;;;5031420;28;20384;-82
2024/01/15 10:45:48;;;;;;;24.10;22.48;;;3.10;99.90;;;;;;5031892;28;20124;-84
2024/01/15 10:48:15;;;;;;;19.65;18.35;;;2.90;99.90;;;;;;5051622;28;20439;-82
2024/01/15 10:50:41;;;;;;;58.55;55.72;;;2.70;99.90;;;;;;5047416;28;20029;-82
2024/01/15 10:53:09;;;;;;;28.42;26.38;;;2.70;99.90;;;;;;5042470;28;20359;-84
2024/01/15 10:55:37;;;;;;;56.75;53.45;;;2.70;99.90;;;;;;5049313;28;20056;-83
2024/01/15 10:58:03;;;;;;;28.67;27.02;;;2.60;99.90;;;;;;5028124;28;20045;-82
2024/01/15 11:00:30;;;;;;;20.30;19.00;;;2.70;99.90;;;;;;5048403;28;20037;-83
2024/01/15 11:02:56;;;;;;;24.13;22.67;;;2.80;99.90;;;;;;5033048;28;20090;-84
2024/01/15 11:05:22;;;;;;;24.20;22.65;;;2.90;99.90;;;;;;5031686;28;20037;-85
2024/01/15 11:07:49;;;;;;;89.90;85.60;;;2.90;99.90;;;;;;5066545;28;20056;-83
2024/01/15 11:10:39;;;;;;;24.08;22.55;;;2.80;99.90;;;;;;5048628;28;20693;-82
2024/01/15 11:13:05;;;;;;;46.33;43.90;;;2.60;99.90;;;;;;5021017;28;20049;-82
2024/01/15 11:15:30;;;;;;;21.05;19.83;;;2.50;99.90;;;;;;5038727;28;20039;-84
2024/01/15 11:18:01;;;;;;;19.63;18.48;;;2.40;99.90;;;;;;5029137;28;20044;-82
2024/01/15 11:20:27;;;;;;;20.50;19.25;;;2.40;99.90;;;;;;5048281;28;20076;-82
2024/01/15 11:22:53;;;;;;;29.77;28.05;;;2.50;99.90;;;;;;5031490;28;20094;-82
2024/01/15 11:25:19;;;;;;;17.00;15.80;;;2.60;99.90;;;;;;5047723;28;20045;-82
2024/01/15 11:27:51;;;;;;;17.23;15.95;;;2.60;99.90;;;;;;5030526;28;20463;-82
2024/01/15 11:30:17;;;;;;;18.55;17.20;;;2.50;99.90;;;;;;5045250;28;20045;-82
2024/01/15 11:32:43;;;;;;;24.42;22.77;;;2.50;99.90;;;;;;5030720;28;20048;-84
2024/01/15 11:35:13;;;;;;;19.88;18.35;;;2.40;99.90;;;;;;5046497;28;20477;-82
2024/01/15 11:37:51;;;;;;;18.77;17.17;;;2.30;99.90;;;;;;5048313;28;20473;-83
2024/01/15 11:40:37;;;;;;;20.83;19.33;;;2.20;99.90;;;;;;5030672;28;20084;-83
2024/01/15 11:43:03;;;;;;;22.80;21.40;;;2.20;99.90;;;;;;5049259;28;20099;-83
2024/01/15 11:45:30;;;;;;;27.85;26.17;;;2.10;99.90;;;;;;5032608;28;20127;-82
2024/01/15 11:48:16;;;;;;;22.30;20.92;;;2.10;99.90;;;;;;5067270;28;20032;-82
2024/01/15 11:50:47;;;;;;;24.58;22.85;;;1.90;99.90;;;;;;5022364;28;20041;-82
2024/01/15 11:53:34;;;;;;;36.67;34.63;;;1.80;99.90;;;;;;5030227;28;20033;-82
2024/01/15 11:56:02;;;;;;;22.23;20.33;;;1.70;99.90;;;;;;5029808;28;20500;-82
2024/01/15 11:58:28;;;;;;;24.67;22.77;;;1.60;99.90;;;;;;5047124;28;20047;-82
2024/01/15 12:00:54;;;;;;;23.27;21.55;;;1.60;99.90;;;;;;5030972;28;20049;-82
2024/01/15 12:03:24;;;;;;;23.13;21.50;;;1.60;99.90;;;;;;5045572;28;20543;-82
2024/01/15 12:05:52;;;;;;;22.83;21.50;;;1.70;99.90;;;;;;5044083;28;20082;-82
2024/01/15 12:08:27;;;;;;;23.42;21.70;;;1.80;99.90;;;;;;5064806;28;20052;-82
2024/01/15 12:10:53;;;;;;;31.02;28.77;;;1.80;99.90;;;;;;5038466;28;20121;-82
2024/01/15 12:13:19;;;;;;;22.40;20.67;;;1.90;99.90;;;;;;5047622;28;20044;-82
2024/01/15 12:15:47;;;;;;;22.13;20.48;;;2.00;99.90;;;;;;5027451;28;20539;-82
2024/01/15 12:18:15;;;;;;;21.60;20.00;;;2.10;99.90;;;;;;5046331;28;20051;-82
2024/01/15 12:20:42;;;;;;;21.10;19.73;;;2.20;99.90;;;;;;5046560;28;20083;-82
2024/01/15 12:23:08;;;;;;;20.80;19.40;;;2.30;99.90;;;;;;5028710;28;20040;-83
2024/01/15 12:25:34;;;;;;;20.23;18.52;;;2.30;99.90;;;;;;5030016;28;20040;-83
2024/01/15 12:28:01;;;;;;;20.40;18.58;;;2.40;99.90;;;;;;5030343;28;20041;-83
2024/01/15 12:30:27;;;;;;;22.10;20.00;;;2.40;99.90;;;;;;5034580;28;20458;-83
2024/01/15 12:32:53;;;;;;;20.17;18.75;;;2.40;99.90;;;;;;5033031;28;20048;-83